Flight Track Log - Related Links

Times and Time Zones

All times are in EDT time to prevent confusion due to time zone crossing. See the EJM918 flight status page for this flight to view local times or setup timezone preferences in your user account.

Time Position Orientation Groundspeed Altitude Reporting Facility
EDT Latitude Longitude Course Direction KTS km/h feet Rate Location/Type
Wed 15:55:32 41.1001 -73.8027 282° West 275 509 4.000  Level FlightAware ADS-B
Wed 15:56:18 41.1134 -73.8819 283° West 285 528 7.800 4.800 Climbing FlightAware ADS-B
Wed 15:56:22 41.1154 -73.8893 290° West 298 552 8.000 2.667 Climbing FlightAware ADS-B
Wed 15:56:27 41.1185 -73.8970 298° West 298 552 8.200 1.800 Climbing FlightAware ADS-B
Wed 15:56:42 41.1327 -73.9162 314° West 298 552 8.600 1.263 Climbing FlightAware ADS-B
Wed 15:56:46 41.1377 -73.9199 331° Northwest 297 550 8.600  Level FlightAware ADS-B
Wed 15:56:52 41.1463 -73.9240 340° North 294 544 8.600  Level FlightAware ADS-B
Wed 15:57:05 41.1634 -73.9247 358° North 292 541 8.600  Level FlightAware ADS-B
Wed 15:57:09 41.1681 -73.9232 14° North 290 538 8.600  Level FlightAware ADS-B
Wed 15:57:12 41.1718 -73.9214 20° North 287 531 8.600  Level FlightAware ADS-B
Wed 15:57:15 41.1755 -73.9191 25° Northeast 285 528 8.600  Level FlightAware ADS-B
Wed 15:57:20 41.1809 -73.9144 33° Northeast 281 520 8.600  Level FlightAware ADS-B
Wed 15:57:23 41.1839 -73.9111 40° Northeast 280 518 8.600  Level FlightAware ADS-B
Wed 15:57:38 41.1947 -73.8898 56° Northeast 275 509 8.600  Level FlightAware ADS-B
Wed 15:57:54 41.2034 -73.8662 64° Northeast 274 507 8.600  Level FlightAware ADS-B
Wed 15:59:16 41.2421 -73.7377 68° East 273 505 8.600  Level FlightAware ADS-B
Wed 15:59:32 41.2483 -73.7120 72° East 274 507 8.600  Level FlightAware ADS-B
Wed 16:01:23 41.3066 -73.5461 65° Northeast 279 517 8.600  Level FlightAware ADS-B (KSNC)
Wed 16:01:47 41.3286 -73.5168 45° Northeast 279 517 8.600  Level FlightAware ADS-B (KSNC)
Wed 16:02:22 41.3603 -73.4743 45° Northeast 277 513 8.600  Level FlightAware ADS-B (KSNC)
Wed 16:02:45 41.3809 -73.4468 45° Northeast 278 515 8.600  Level FlightAware ADS-B (KSNC)
Wed 16:03:09 41.4025 -73.4181 45° Northeast 280 518 8.600  Level FlightAware ADS-B (KSNC)
Wed 16:03:32 41.4242 -73.3891 45° Northeast 278 515 8.600  Level FlightAware ADS-B (KSNC)
Wed 16:04:13 41.4591 -73.3421 45° Northeast 277 513 8.600  Level FlightAware ADS-B (KSNC)
Wed 16:04:42 41.4806 -73.3132 45° Northeast 279 517 8.600  Level FlightAware ADS-B (KSNC)
Wed 16:05:03 41.5060 -73.2783 46° Northeast 274 507 8.600  Level FlightAware ADS-B (KSNC)
Wed 16:05:35 41.5333 -73.2404 46° Northeast 273 505 8.600  Level FlightAware ADS-B (KSNC)
Wed 16:06:03 41.5567 -73.2083 46° Northeast 272 504 8.600  Level FlightAware ADS-B (KSNC)
Wed 16:06:21 41.5748 -73.1832 46° Northeast 272 504 8.600 -808 Level FlightAware ADS-B (KSNC)
Wed 16:06:55 41.5878 -73.1650 46° Northeast 270 501 7.900 -1.309 Descending FlightAware ADS-B (KSNC)
Wed 16:07:16 41.6172 -73.1240 46° Northeast 274 507 7.400 -1.463 Descending FlightAware ADS-B (KSNC)
Wed 16:07:36 41.6382 -73.0950 46° Northeast 267 494 6.900 -1.385 Descending FlightAware ADS-B (KSNC)
Wed 16:08:21 41.6785 -73.0391 46° Northeast 262 486 5.900 -1.304 Descending FlightAware ADS-B (KSNC)
Wed 16:08:45 41.6900 -73.0231 46° Northeast 262 486 5.400 -1.358 Descending FlightAware ADS-B (KSNC)
Wed 16:09:14 41.7220 -72.9781 46° Northeast 256 475 4.700 -1.375 Descending FlightAware ADS-B (KSNC)
Wed 16:09:33 41.7376 -72.9565 46° Northeast 253 468 4.300 -1.174 Descending FlightAware ADS-B (KSNC)
Wed 16:10:00 41.7582 -72.9278 46° Northeast 245 454 3.800 -1.277 Descending FlightAware ADS-B (KSNC)
Wed 16:10:20 41.7743 -72.9051 46° Northeast 239 443 3.300 -765 Descending FlightAware ADS-B (KSNC)
Wed 16:11:42 41.8267 -72.8356 46° Northeast 196 364 2.500 -574 Descending Boston Center
Wed 16:12:36 41.8581 -72.7969 42° Northeast 166 307 2.000 -556 Descending Boston Center
Wed 16:13:30 41.8872 -72.7608 43° Northeast 145 269 1.500 -626 Descending Boston Center
Wed 16:14:31 41.9103 -72.7303 45° Northeast 118 219 800 -689 Descending Boston Center

Login

Don't have an account? Register now (free) for customized features, flight alerts, and more!